Terminal Aerodrome Forecast
Issued by NWS

Home | Current Version | Previous Version | Text Only | Print | Product List | Glossary On
Versions: 1 2 3 4 5 6 7 8 9 10 11 12 13 14 15 16 17 18
000
FTUS41 KBTV 231300 AAA
TAFMSS
TAF AMD
KMSS 231320Z 2313/2412 22008KT P6SM BKN025 OVC060
      TEMPO 2313/2316 SCT025 BKN060
     FM231600 23010G18KT P6SM BKN035
     FM240000 25006KT P6SM SCT050=

USA.gov is the U.S. government's official web portal to all federal, state and local government web resources and services.